Time;durP1;ratioP1;P1;durP2;ratioP2;P2;SDS_P1;SDS_P2;PMS_P1;PMS_P2;Temp;Humidity;BMP_temperature;BMP_pressure;BME280_temperature;BME280_humidity;BME280_pressure;Samples;Min_cycle;Max_cycle;Signal;HPM_P1;HPM_P2
2022/08/11 00:00:45;;;;;;;3.72;2.70;;;15.70;90.30;;;;;;4957837;28;20032;-74
2022/08/11 00:03:12;;;;;;;5.15;2.72;;;15.70;90.90;;;;;;4958236;28;20483;-74
2022/08/11 00:05:50;;;;;;;5.43;2.72;;;15.80;90.70;;;;;;4957834;28;20500;-74
2022/08/11 00:08:24;;;;;;;2.88;2.50;;;15.70;90.70;;;;;;4957850;28;20054;-73
2022/08/11 00:10:56;;;;;;;3.40;2.92;;;15.60;90.70;;;;;;4957761;28;20122;-74
2022/08/11 00:13:29;;;;;;;3.05;2.80;;;15.60;90.70;;;;;;4958129;28;20031;-74
2022/08/11 00:15:55;;;;;;;3.67;2.67;;;15.60;91.10;;;;;;4937261;29;20535;-73
2022/08/11 00:18:21;;;;;;;3.72;2.45;;;15.60;91.30;;;;;;4941906;28;20095;-73
2022/08/11 00:20:47;;;;;;;5.22;2.72;;;15.60;91.10;;;;;;4957233;28;20034;-73
2022/08/11 00:23:18;;;;;;;3.97;2.75;;;15.60;90.90;;;;;;4957851;28;20027;-73
2022/08/11 00:25:45;;;;;;;2.80;2.50;;;15.60;91.10;;;;;;4957736;28;20036;-73
2022/08/11 00:28:31;;;;;;;4.00;2.50;;;15.60;91.00;;;;;;4957577;28;20050;-73
2022/08/11 00:31:06;;;;;;;3.00;2.40;;;15.70;91.00;;;;;;4957640;28;20087;-73
2022/08/11 00:33:42;;;;;;;3.90;2.70;;;15.60;90.90;;;;;;4957568;28;20445;-73
2022/08/11 00:36:10;;;;;;;4.13;2.65;;;15.50;90.90;;;;;;4938532;28;20496;-73
2022/08/11 00:38:40;;;;;;;4.53;2.53;;;15.50;91.00;;;;;;4938474;28;20534;-73
2022/08/11 00:41:19;;;;;;;4.63;2.67;;;15.40;90.90;;;;;;4938287;28;20036;-74
2022/08/11 00:44:02;;;;;;;3.13;2.83;;;15.40;91.00;;;;;;4942736;28;20036;-74
2022/08/11 00:46:53;;;;;;;3.15;2.20;;;15.40;91.30;;;;;;4957748;28;20038;-73
2022/08/11 00:49:56;;;;;;;3.10;2.60;;;15.30;91.40;;;;;;4954901;28;20052;-73
2022/08/11 00:52:24;;;;;;;3.58;2.83;;;15.30;91.50;;;;;;4955995;28;20441;-73
2022/08/11 00:55:25;;;;;;;4.80;2.80;;;15.20;91.40;;;;;;4956401;28;20483;-73
2022/08/11 00:58:25;;;;;;;4.03;2.30;;;15.20;91.60;;;;;;4939546;28;20044;-73
2022/08/11 01:01:11;;;;;;;3.95;2.67;;;15.10;91.20;;;;;;4957506;28;20410;-73
2022/08/11 01:04:09;;;;;;;4.32;3.05;;;15.10;91.70;;;;;;4955726;28;20083;-73
2022/08/11 01:06:44;;;;;;;4.30;2.72;;;15.10;91.90;;;;;;4949769;28;20040;-73
2022/08/11 01:09:37;;;;;;;4.72;3.03;;;15.10;91.90;;;;;;4955750;28;20075;-73
2022/08/11 01:12:31;;;;;;;3.38;2.88;;;15.20;92.30;;;;;;4955822;28;20039;-73
2022/08/11 01:15:32;;;;;;;4.45;3.00;;;15.20;92.00;;;;;;4948064;28;20040;-73
2022/08/11 01:18:37;;;;;;;2.72;2.53;;;15.10;92.00;;;;;;4956435;28;20040;-73
2022/08/11 01:21:18;;;;;;;3.33;3.00;;;15.10;92.00;;;;;;4957472;28;20490;-73
2022/08/11 01:24:34;;;;;;;3.17;2.88;;;15.00;92.10;;;;;;4957364;28;20408;-74
2022/08/11 01:27:42;;;;;;;7.10;3.55;;;15.00;92.20;;;;;;4938139;29;20139;-73
2022/08/11 01:30:42;;;;;;;5.13;3.55;;;15.00;92.30;;;;;;4937988;29;20120;-73
2022/08/11 01:33:08;;;;;;;5.40;2.85;;;15.00;92.00;;;;;;4945266;28;20512;-73
2022/08/11 01:36:11;;;;;;;3.97;2.92;;;15.00;92.00;;;;;;4955103;28;20050;-73
2022/08/11 01:39:12;;;;;;;4.10;2.92;;;15.00;91.90;;;;;;4954873;28;20079;-73
2022/08/11 01:45:30;;;;;;;3.70;3.05;;;14.90;91.80;;;;;;4946093;28;20052;-73
2022/08/11 01:48:07;;;;;;;3.70;2.80;;;14.90;91.80;;;;;;4955245;28;20047;-73
2022/08/11 01:51:07;;;;;;;6.18;3.60;;;14.90;91.70;;;;;;4956811;28;20086;-73
2022/08/11 01:53:49;;;;;;;3.95;3.10;;;14.80;91.80;;;;;;4956086;28;20106;-73
2022/08/11 01:56:43;;;;;;;4.95;3.22;;;14.80;92.50;;;;;;4956356;28;20040;-73
2022/08/11 01:59:09;;;;;;;3.33;3.03;;;14.80;92.80;;;;;;4956692;28;20051;-73
2022/08/11 02:01:43;;;;;;;4.13;3.20;;;14.70;92.90;;;;;;4956582;28;20091;-73
2022/08/11 02:04:20;;;;;;;4.82;3.15;;;14.70;93.20;;;;;;4954265;28;20553;-73
2022/08/11 02:07:10;;;;;;;3.90;3.25;;;14.70;93.00;;;;;;4956783;28;20138;-73
2022/08/11 02:09:55;;;;;;;4.20;3.00;;;14.70;93.20;;;;;;4956424;28;20036;-73
2022/08/11 02:12:49;;;;;;;7.15;3.65;;;14.60;93.30;;;;;;4955730;28;20148;-73
2022/08/11 02:15:42;;;;;;;4.75;3.20;;;14.70;93.50;;;;;;4947899;28;20044;-73
2022/08/11 02:18:20;;;;;;;3.20;2.90;;;14.70;93.30;;;;;;4954558;28;20071;-73
2022/08/11 02:23:53;;;;;;;4.72;3.10;;;14.60;93.60;;;;;;4956063;28;20044;-73
2022/08/11 02:26:31;;;;;;;4.63;3.28;;;14.60;93.90;;;;;;4954461;28;20478;-73
2022/08/11 02:29:35;;;;;;;4.13;3.20;;;14.60;93.70;;;;;;4956165;28;20508;-73
2022/08/11 02:35:03;;;;;;;5.35;3.38;;;14.50;94.00;;;;;;4944641;28;20118;-73
2022/08/11 02:37:59;;;;;;;4.03;3.72;;;14.40;93.90;;;;;;4956072;28;20040;-73
2022/08/11 02:40:55;;;;;;;4.47;3.38;;;14.40;94.20;;;;;;4956063;28;20043;-73
2022/08/11 02:43:48;;;;;;;3.58;3.05;;;14.40;94.40;;;;;;4955348;28;20044;-73
2022/08/11 02:46:16;;;;;;;4.90;3.42;;;14.40;94.30;;;;;;4954330;28;20036;-73
2022/08/11 02:52:07;;;;;;;5.22;3.35;;;14.30;94.40;;;;;;4955685;28;20514;-73
2022/08/11 02:54:55;;;;;;;4.75;3.78;;;14.30;94.10;;;;;;4954988;28;20040;-73
2022/08/11 02:57:32;;;;;;;5.50;3.30;;;14.30;94.20;;;;;;4944792;28;20055;-73
2022/08/11 03:00:10;;;;;;;4.50;3.58;;;14.20;94.20;;;;;;4955994;28;20091;-73
2022/08/11 03:03:01;;;;;;;4.50;2.95;;;14.20;94.70;;;;;;4954182;28;20032;-73
2022/08/11 03:05:48;;;;;;;4.60;3.60;;;14.20;94.40;;;;;;4946146;28;20039;-74
2022/08/11 03:08:50;;;;;;;6.95;3.75;;;14.20;94.30;;;;;;4955697;28;20046;-73
2022/08/11 03:17:51;;;;;;;4.38;3.53;;;14.20;94.70;;;;;;4953646;28;20066;-73
2022/08/11 03:20:20;;;;;;;4.13;3.58;;;14.20;94.60;;;;;;4955351;28;20114;-73
2022/08/11 03:22:52;;;;;;;3.75;3.45;;;14.10;94.60;;;;;;4955463;28;20036;-73
2022/08/11 03:25:39;;;;;;;6.00;3.40;;;14.10;94.80;;;;;;4954714;28;20036;-73
2022/08/11 03:28:26;;;;;;;6.57;3.58;;;14.10;94.90;;;;;;4954236;28;20192;-72
2022/08/11 03:31:26;;;;;;;3.75;3.40;;;14.00;94.90;;;;;;4955347;28;20071;-72
2022/08/11 03:34:03;;;;;;;6.05;3.40;;;14.00;95.10;;;;;;4953825;28;20044;-72
2022/08/11 03:36:40;;;;;;;4.75;3.80;;;13.90;95.00;;;;;;4955256;28;20046;-72
2022/08/11 03:39:16;;;;;;;5.07;3.70;;;14.00;95.20;;;;;;4955377;28;20107;-73
2022/08/11 03:42:08;;;;;;;4.20;3.80;;;14.00;95.40;;;;;;4954689;28;20046;-72
2022/08/11 03:45:04;;;;;;;5.03;3.70;;;14.10;95.60;;;;;;4953290;28;20039;-72
2022/08/11 03:47:51;;;;;;;4.22;3.58;;;14.20;95.30;;;;;;4946897;28;20042;-72
2022/08/11 03:50:41;;;;;;;3.97;3.58;;;14.20;95.00;;;;;;4954791;28;20633;-73
2022/08/11 03:53:38;;;;;;;6.50;4.05;;;14.10;95.20;;;;;;4955387;28;20040;-73
2022/08/11 03:56:40;;;;;;;5.10;3.90;;;14.10;95.30;;;;;;4955021;28;20044;-73
2022/08/11 03:59:19;;;;;;;4.45;3.80;;;14.10;95.40;;;;;;4957790;28;20044;-73
2022/08/11 04:02:22;;;;;;;4.22;3.80;;;14.00;95.60;;;;;;4956787;28;20074;-73
2022/08/11 04:04:58;;;;;;;4.32;3.92;;;14.00;95.50;;;;;;4957640;28;20091;-73
2022/08/11 04:08:06;;;;;;;4.03;3.63;;;13.90;95.50;;;;;;4956944;28;20031;-73
2022/08/11 04:10:32;;;;;;;3.72;3.28;;;13.90;95.40;;;;;;4942227;28;20047;-73
2022/08/11 04:13:26;;;;;;;3.88;3.17;;;13.90;95.50;;;;;;4958224;28;20047;-73
2022/08/11 04:16:20;;;;;;;4.43;4.00;;;13.90;95.20;;;;;;4956136;28;20047;-73
2022/08/11 04:19:11;;;;;;;4.28;3.60;;;13.90;95.60;;;;;;4957540;28;20152;-72
2022/08/11 04:22:11;;;;;;;5.00;3.97;;;13.90;95.80;;;;;;4957828;28;20088;-72
2022/08/11 04:24:59;;;;;;;5.63;4.18;;;13.90;96.00;;;;;;4958178;28;20102;-72
2022/08/11 04:27:45;;;;;;;5.00;3.95;;;13.90;95.70;;;;;;4956964;28;20043;-74
2022/08/11 04:30:18;;;;;;;5.70;4.85;;;13.80;95.80;;;;;;4939074;28;20040;-74
2022/08/11 04:33:22;;;;;;;4.35;3.85;;;13.90;96.00;;;;;;4938888;28;20033;-73
2022/08/11 04:36:08;;;;;;;6.90;4.00;;;13.90;96.00;;;;;;4937712;28;20040;-73
2022/08/11 04:38:58;;;;;;;4.55;4.13;;;13.90;96.00;;;;;;4957816;28;20099;-73
2022/08/11 04:45:05;;;;;;;6.28;4.45;;;14.10;95.80;;;;;;4958105;28;20075;-74
2022/08/11 05:03:03;;;;;;;5.72;4.78;;;14.50;94.90;;;;;;4957346;28;20039;-74
2022/08/11 05:05:53;;;;;;;9.95;4.03;;;14.60;95.00;;;;;;4957359;28;20035;-74
2022/08/11 05:08:47;;;;;;;7.82;4.60;;;14.60;94.90;;;;;;4943145;28;20039;-74
2022/08/11 05:11:18;;;;;;;6.50;4.50;;;14.70;94.70;;;;;;4956561;28;20051;-75
2022/08/11 05:36:53;;;;;;;5.30;3.92;;;15.20;94.40;;;;;;4956873;28;20039;-75
2022/08/11 05:56:21;;;;;;;6.45;3.25;;;15.80;94.10;;;;;;4956701;28;20043;-74
2022/08/11 05:58:53;;;;;;;8.65;4.32;;;16.00;93.80;;;;;;4955329;28;20405;-74
2022/08/11 06:01:31;;;;;;;8.00;3.80;;;16.10;93.50;;;;;;4955521;28;20088;-74
2022/08/11 06:04:13;;;;;;;5.32;3.50;;;16.40;92.60;;;;;;4948571;28;20047;-75
2022/08/11 06:06:45;;;;;;;5.30;3.28;;;16.70;92.00;;;;;;4956455;28;20027;-75
2022/08/11 06:09:13;;;;;;;5.63;3.00;;;16.90;91.50;;;;;;4956256;28;20050;-75
2022/08/11 06:11:41;;;;;;;11.32;3.78;;;17.10;91.00;;;;;;4953044;28;20036;-72
2022/08/11 06:14:11;;;;;;;5.72;2.83;;;17.30;90.10;;;;;;4956041;28;20097;-72
2022/08/11 06:16:39;;;;;;;6.30;3.10;;;17.40;90.10;;;;;;4955970;28;20035;-72
2022/08/11 06:19:07;;;;;;;4.35;2.95;;;17.50;89.60;;;;;;4955925;28;20101;-75
2022/08/11 06:21:34;;;;;;;9.27;3.17;;;17.70;88.50;;;;;;4955901;28;20057;-72
2022/08/11 06:24:04;;;;;;;7.93;3.15;;;17.90;87.20;;;;;;4956041;28;20497;-72
2022/08/11 06:26:30;;;;;;;6.65;3.03;;;18.10;86.90;;;;;;4954442;28;20127;-72
2022/08/11 06:29:00;;;;;;;4.35;3.03;;;18.30;86.00;;;;;;4956003;28;20042;-71
2022/08/11 06:31:27;;;;;;;5.32;3.00;;;18.50;85.70;;;;;;4954158;28;20036;-72
2022/08/11 06:34:05;;;;;;;5.28;2.83;;;18.50;85.80;;;;;;4956414;28;20042;-70
2022/08/11 06:36:53;;;;;;;6.63;3.10;;;18.70;84.50;;;;;;4956189;28;20050;-73
2022/08/11 06:39:33;;;;;;;6.90;3.17;;;18.80;84.70;;;;;;4955802;28;20048;-73
2022/08/11 06:42:08;;;;;;;4.50;2.53;;;19.00;84.30;;;;;;4954981;28;20040;-73
2022/08/11 06:44:42;;;;;;;6.65;3.10;;;19.00;84.10;;;;;;4953571;28;20127;-73
2022/08/11 06:47:10;;;;;;;4.32;2.70;;;19.20;84.80;;;;;;4954848;28;20484;-73
2022/08/11 06:52:31;;;;;;;4.05;2.70;;;19.30;82.00;;;;;;4956088;28;20063;-72
2022/08/11 06:55:05;;;;;;;6.60;2.88;;;19.60;81.00;;;;;;4955375;28;20410;-73
2022/08/11 07:00:27;;;;;;;5.47;2.83;;;19.80;80.70;;;;;;4953244;28;20044;-72
2022/08/11 07:03:02;;;;;;;7.97;2.75;;;20.10;79.70;;;;;;4936862;28;20068;-72
2022/08/11 07:05:47;;;;;;;3.95;2.90;;;20.30;79.60;;;;;;4951675;28;20040;-72
2022/08/11 07:17:41;;;;;;;5.43;3.00;;;21.10;76.40;;;;;;4954640;28;20126;-73
2022/08/11 07:28:54;;;;;;;5.38;2.72;;;22.00;73.90;;;;;;4954805;28;20039;-73
2022/08/11 07:31:29;;;;;;;3.58;2.53;;;22.30;72.70;;;;;;4955717;28;20027;-73
2022/08/11 07:34:33;;;;;;;5.70;3.15;;;22.50;71.40;;;;;;4957697;28;20579;-73
2022/08/11 07:37:04;;;;;;;4.57;3.13;;;22.70;70.70;;;;;;4951643;28;20044;-73
2022/08/11 07:39:36;;;;;;;5.15;2.88;;;23.00;70.70;;;;;;4958602;28;20044;-73
2022/08/11 07:42:07;;;;;;;4.65;2.92;;;23.20;69.60;;;;;;4958325;28;20506;-73
2022/08/11 07:48:10;;;;;;;4.38;2.85;;;23.40;68.60;;;;;;4957820;28;20095;-74
2022/08/11 07:52:52;;;;;;;4.30;2.95;;;24.10;66.10;;;;;;4958841;28;20035;-73
2022/08/11 07:55:19;;;;;;;3.63;2.60;;;24.20;65.50;;;;;;4958102;28;20406;-74
2022/08/11 08:19:56;;;;;;;4.63;3.03;;;25.70;59.30;;;;;;4958480;28;20123;-73
2022/08/11 08:22:22;;;;;;;5.90;2.70;;;25.90;59.70;;;;;;4957872;28;20470;-73
2022/08/11 08:24:48;;;;;;;4.50;2.47;;;26.10;60.20;;;;;;4956009;28;20044;-73
2022/08/11 08:27:15;;;;;;;6.07;2.85;;;26.30;58.90;;;;;;4955198;28;20418;-74
2022/08/11 08:32:27;;;;;;;6.50;2.70;;;26.50;58.40;;;;;;4957640;28;20036;-74
2022/08/11 08:34:55;;;;;;;4.80;2.92;;;26.60;57.50;;;;;;4957130;28;20040;-74
2022/08/11 08:37:23;;;;;;;7.35;2.97;;;26.70;58.00;;;;;;4956036;28;20048;-74
2022/08/11 08:39:49;;;;;;;3.47;2.58;;;26.80;57.60;;;;;;4962305;28;20039;-74
2022/08/11 08:42:23;;;;;;;7.28;2.88;;;27.00;58.10;;;;;;4960620;28;20502;-74
2022/08/11 08:45:03;;;;;;;4.97;2.60;;;27.00;56.70;;;;;;4965053;28;20593;-74
2022/08/11 08:47:34;;;;;;;4.95;2.50;;;27.10;55.50;;;;;;4976313;28;20063;-74
2022/08/11 08:50:05;;;;;;;5.30;3.00;;;27.20;55.80;;;;;;4965043;28;20043;-74
2022/08/11 08:52:39;;;;;;;5.28;2.60;;;27.20;56.00;;;;;;4972342;28;20482;-74
2022/08/11 08:55:06;;;;;;;4.78;2.38;;;27.50;55.90;;;;;;4967066;28;20474;-74
2022/08/11 08:57:36;;;;;;;2.80;2.40;;;27.60;55.20;;;;;;4952285;28;20111;-74
2022/08/11 09:00:05;;;;;;;3.25;2.25;;;27.60;54.40;;;;;;4954132;28;20031;-74
2022/08/11 09:02:31;;;;;;;3.95;2.38;;;27.70;54.80;;;;;;4953623;28;20047;-74
2022/08/11 09:04:57;;;;;;;3.55;2.20;;;27.70;54.10;;;;;;4962413;28;20039;-73
2022/08/11 09:07:25;;;;;;;7.43;2.58;;;28.00;53.70;;;;;;4955105;28;20072;-73
2022/08/11 09:09:54;;;;;;;4.13;2.38;;;28.10;52.90;;;;;;4950111;28;20052;-73
2022/08/11 09:12:21;;;;;;;5.05;2.10;;;28.00;52.50;;;;;;4955817;28;20040;-74
2022/08/11 09:15:02;;;;;;;3.88;2.10;;;27.90;52.30;;;;;;4973581;28;20071;-74
2022/08/11 09:17:39;;;;;;;2.88;2.60;;;28.00;52.00;;;;;;4951501;28;20455;-74
2022/08/11 09:20:08;;;;;;;4.43;2.40;;;28.10;51.40;;;;;;4963016;28;20103;-74
2022/08/11 09:28:14;;;;;;;6.50;2.40;;;28.90;49.30;;;;;;4949698;28;20042;-74
2022/08/11 09:30:42;;;;;;;5.28;2.00;;;28.80;49.50;;;;;;4961550;28;20040;-74
2022/08/11 09:33:11;;;;;;;6.30;2.22;;;29.10;48.20;;;;;;4952994;28;20079;-74
2022/08/11 09:35:41;;;;;;;3.78;2.13;;;29.00;48.30;;;;;;4949482;28;20032;-74
2022/08/11 09:40:55;;;;;;;2.50;2.00;;;29.20;48.70;;;;;;4952789;28;20094;-74
2022/08/11 09:46:07;;;;;;;2.80;2.03;;;29.80;47.50;;;;;;4951418;28;20031;-74
2022/08/11 09:48:45;;;;;;;6.85;2.10;;;30.00;46.90;;;;;;4969758;28;20126;-74
2022/08/11 09:51:12;;;;;;;3.63;1.92;;;30.00;46.20;;;;;;4950494;28;20036;-75
2022/08/11 09:53:41;;;;;;;3.05;1.92;;;30.00;45.90;;;;;;4949051;28;20036;-74
2022/08/11 09:59:03;;;;;;;4.40;2.10;;;30.20;45.30;;;;;;4957220;28;20075;-74
2022/08/11 10:01:49;;;;;;;2.90;1.80;;;30.10;44.40;;;;;;4957045;28;20031;-74
2022/08/11 10:04:17;;;;;;;4.60;2.00;;;30.10;45.00;;;;;;4954900;28;20494;-74
2022/08/11 10:07:00;;;;;;;3.88;1.83;;;30.30;44.80;;;;;;4959327;28;20067;-75
2022/08/11 10:09:36;;;;;;;3.20;1.70;;;30.40;43.30;;;;;;4945509;28;20059;-74
2022/08/11 10:12:05;;;;;;;4.40;1.90;;;30.20;43.20;;;;;;4954738;28;20122;-74
2022/08/11 10:17:19;;;;;;;6.05;1.98;;;30.10;43.20;;;;;;4963327;28;20039;-74
2022/08/11 10:19:47;;;;;;;2.45;1.60;;;30.10;42.50;;;;;;4962215;28;20374;-74
2022/08/11 10:27:52;;;;;;;2.03;1.60;;;30.70;41.30;;;;;;4957564;28;20040;-75
2022/08/11 10:35:47;;;;;;;2.97;1.73;;;30.70;39.30;;;;;;4948375;28;20073;-75
2022/08/11 10:38:14;;;;;;;3.20;1.70;;;30.80;41.00;;;;;;4950009;28;20141;-75
2022/08/11 10:40:44;;;;;;;2.85;1.70;;;31.00;40.80;;;;;;4950164;28;20036;-75
2022/08/11 10:43:13;;;;;;;3.17;1.55;;;31.40;40.10;;;;;;4952421;28;20040;-75
2022/08/11 10:48:35;;;;;;;3.92;1.65;;;31.80;40.80;;;;;;4952339;28;20040;-75
2022/08/11 10:51:13;;;;;;;3.22;1.70;;;32.00;39.80;;;;;;4941515;28;20040;-75
2022/08/11 10:59:16;;;;;;;3.20;1.90;;;32.20;39.10;;;;;;4940191;28;20040;-76
2022/08/11 11:01:43;;;;;;;4.10;1.80;;;32.00;39.20;;;;;;4942884;28;20039;-76
2022/08/11 11:04:19;;;;;;;4.03;1.70;;;31.70;39.10;;;;;;4955349;28;20035;-76
2022/08/11 11:06:58;;;;;;;2.05;1.83;;;31.50;39.60;;;;;;4955505;28;20032;-76
2022/08/11 11:09:31;;;;;;;3.65;2.22;;;31.80;38.90;;;;;;4958743;28;20127;-76
2022/08/11 11:18:00;;;;;;;5.22;1.80;;;32.30;39.20;;;;;;4939849;29;20048;-76
2022/08/11 11:20:34;;;;;;;1.90;1.75;;;32.50;38.20;;;;;;4939744;29;20506;-76
2022/08/11 11:23:07;;;;;;;6.45;1.70;;;32.60;38.20;;;;;;4956399;28;20075;-76
2022/08/11 11:25:32;;;;;;;2.83;1.88;;;32.40;38.50;;;;;;4956825;28;20039;-76
2022/08/11 11:28:04;;;;;;;1.80;1.67;;;32.20;38.70;;;;;;4954928;28;20035;-76
2022/08/11 11:30:44;;;;;;;3.00;1.80;;;32.40;39.10;;;;;;4958636;28;20047;-76
2022/08/11 11:33:24;;;;;;;4.07;1.90;;;32.60;38.00;;;;;;4958577;28;20040;-76
2022/08/11 11:36:30;;;;;;;1.90;1.70;;;32.90;38.40;;;;;;4958389;28;20557;-76
2022/08/11 11:38:57;;;;;;;2.28;1.90;;;32.80;38.50;;;;;;4950049;28;20060;-76
2022/08/11 11:41:26;;;;;;;4.70;2.00;;;33.00;38.50;;;;;;4957809;28;20044;-76
2022/08/11 11:43:56;;;;;;;3.50;1.80;;;33.20;38.90;;;;;;4958634;28;20119;-76
2022/08/11 11:46:25;;;;;;;3.83;1.98;;;33.40;38.50;;;;;;4958484;28;20027;-76
2022/08/11 11:48:52;;;;;;;4.50;1.95;;;33.80;37.30;;;;;;4958625;28;20127;-76
2022/08/11 11:51:19;;;;;;;4.20;2.03;;;33.80;37.10;;;;;;4957340;28;21995;-76
2022/08/11 11:53:46;;;;;;;2.38;1.70;;;33.50;38.20;;;;;;4960800;28;20110;-76
2022/08/11 11:56:13;;;;;;;3.63;1.88;;;33.30;37.70;;;;;;4958757;28;20032;-76
2022/08/11 12:01:25;;;;;;;2.85;1.75;;;33.70;37.50;;;;;;4958110;28;20044;-76
2022/08/11 12:03:54;;;;;;;4.72;1.75;;;33.70;37.20;;;;;;4958468;28;20577;-76
2022/08/11 12:06:22;;;;;;;3.75;1.85;;;33.30;38.50;;;;;;4945077;28;20040;-76
2022/08/11 12:08:50;;;;;;;3.25;1.90;;;33.30;39.30;;;;;;4947794;28;20042;-76
2022/08/11 12:14:06;;;;;;;3.67;1.90;;;33.60;36.60;;;;;;4958095;28;20048;-76
2022/08/11 12:16:35;;;;;;;1.85;1.65;;;33.80;36.80;;;;;;4957461;28;20031;-76
2022/08/11 12:19:02;;;;;;;3.95;1.92;;;34.00;36.70;;;;;;4955772;28;20459;-76
2022/08/11 12:21:28;;;;;;;2.05;1.67;;;34.00;35.70;;;;;;4957069;28;20870;-76
2022/08/11 12:29:16;;;;;;;2.85;1.70;;;34.60;35.60;;;;;;4954935;28;20032;-76
2022/08/11 12:31:43;;;;;;;4.70;1.95;;;34.40;34.60;;;;;;4957605;28;20044;-76
2022/08/11 12:34:11;;;;;;;4.45;1.80;;;34.30;34.50;;;;;;4953870;28;20044;-76
2022/08/11 12:36:50;;;;;;;5.32;1.83;;;34.00;36.30;;;;;;4957280;28;20441;-76
2022/08/11 12:45:26;;;;;;;4.18;1.92;;;34.00;36.10;;;;;;4957002;28;20110;-77
2022/08/11 12:53:22;;;;;;;5.15;1.58;;;34.00;34.90;;;;;;4957247;28;20044;-76
2022/08/11 12:58:37;;;;;;;5.45;3.17;;;34.50;34.30;;;;;;4956855;28;20035;-76
2022/08/11 13:06:32;;;;;;;6.15;2.22;;;35.00;35.40;;;;;;4956651;28;20502;-76
2022/08/11 13:08:58;;;;;;;4.55;2.42;;;35.10;35.40;;;;;;4956598;28;20039;-77
2022/08/11 13:14:08;;;;;;;4.50;2.25;;;34.90;35.30;;;;;;4955233;28;20127;-77
2022/08/11 13:17:20;;;;;;;3.97;1.67;;;35.10;34.10;;;;;;4954726;28;20039;-76
2022/08/11 13:19:22;;;;;;;2.83;2.00;;;35.10;34.20;;;;;;4956519;28;20103;-76
2022/08/11 13:21:49;;;;;;;2.80;1.80;;;34.80;34.50;;;;;;4956547;28;20534;-76
2022/08/11 13:24:17;;;;;;;4.28;1.70;;;35.00;35.90;;;;;;4956386;28;20040;-76
2022/08/11 13:26:44;;;;;;;4.93;1.90;;;35.10;34.30;;;;;;4955946;28;20480;-76
2022/08/11 13:29:10;;;;;;;2.13;1.90;;;35.10;34.10;;;;;;4957257;28;20039;-76
2022/08/11 13:31:38;;;;;;;4.78;1.95;;;35.40;34.90;;;;;;4954405;28;20068;-77
2022/08/11 13:34:07;;;;;;;2.65;1.50;;;35.50;34.80;;;;;;4956500;28;20044;-77
2022/08/11 13:36:33;;;;;;;2.22;1.50;;;35.80;33.20;;;;;;4956054;28;20039;-76
2022/08/11 13:38:58;;;;;;;3.42;1.75;;;36.10;32.80;;;;;;4957137;28;20039;-76
2022/08/11 13:41:39;;;;;;;1.92;1.50;;;36.40;31.80;;;;;;4956805;28;20040;-77
2022/08/11 13:44:07;;;;;;;3.17;1.80;;;36.40;32.30;;;;;;4956456;28;20035;-77
2022/08/11 13:46:33;;;;;;;2.00;1.58;;;36.40;32.50;;;;;;4956764;28;20040;-77
2022/08/11 13:48:59;;;;;;;4.45;1.85;;;36.70;31.40;;;;;;4956213;28;20588;-77
2022/08/11 13:51:35;;;;;;;2.80;1.67;;;37.40;32.40;;;;;;4956785;28;20122;-77
2022/08/11 13:54:05;;;;;;;3.35;1.67;;;38.00;30.70;;;;;;4956551;28;20035;-77
2022/08/11 13:56:33;;;;;;;3.60;1.85;;;38.70;31.30;;;;;;4956619;28;20039;-77
2022/08/11 13:59:02;;;;;;;2.40;1.63;;;39.70;29.70;;;;;;4955056;28;20040;-77
2022/08/11 14:01:31;;;;;;;4.03;2.13;;;40.20;29.30;;;;;;4956261;28;20028;-77
2022/08/11 14:04:10;;;;;;;3.00;1.80;;;39.80;29.50;;;;;;4956464;28;20043;-77
2022/08/11 14:06:38;;;;;;;4.00;1.63;;;39.60;28.60;;;;;;4956806;28;20074;-77
2022/08/11 14:09:08;;;;;;;2.70;1.80;;;40.10;29.30;;;;;;4956352;28;20071;-77
2022/08/11 14:14:23;;;;;;;3.70;2.20;;;40.00;29.50;;;;;;4955328;28;20040;-78
2022/08/11 14:16:51;;;;;;;3.78;2.00;;;40.30;28.80;;;;;;4955037;28;20039;-77
2022/08/11 14:19:22;;;;;;;2.15;1.90;;;40.90;28.90;;;;;;4956153;28;20040;-77
2022/08/11 14:22:06;;;;;;;2.47;1.60;;;41.00;27.90;;;;;;4955239;28;20027;-77
2022/08/11 14:24:48;;;;;;;3.67;2.05;;;40.70;28.40;;;;;;4954431;28;20052;-77
2022/08/11 14:27:15;;;;;;;2.47;2.05;;;40.80;28.40;;;;;;4956761;28;20581;-77
2022/08/11 14:29:42;;;;;;;6.43;2.20;;;40.90;28.90;;;;;;4957117;28;20050;-77
2022/08/11 14:32:09;;;;;;;5.28;2.03;;;41.60;28.70;;;;;;4956094;28;20027;-77
2022/08/11 14:34:39;;;;;;;6.72;1.90;;;42.50;27.90;;;;;;4955496;28;20074;-77
2022/08/11 14:37:10;;;;;;;4.15;1.98;;;41.90;28.30;;;;;;4955781;28;20450;-77
2022/08/11 14:39:55;;;;;;;4.03;2.28;;;41.20;28.90;;;;;;4956327;28;20040;-77
2022/08/11 14:48:04;;;;;;;6.22;2.90;;;41.80;28.90;;;;;;4956443;28;20051;-78
2022/08/11 14:50:31;;;;;;;6.97;2.00;;;41.20;28.50;;;;;;4955454;28;20059;-78
2022/08/11 14:53:07;;;;;;;5.93;2.28;;;41.20;28.70;;;;;;4955855;28;20035;-78
2022/08/11 14:58:25;;;;;;;5.57;2.22;;;40.70;29.50;;;;;;4957107;28;20490;-78
2022/08/11 15:00:53;;;;;;;6.80;1.98;;;41.70;28.20;;;;;;4955837;28;20119;-78
2022/08/11 15:03:20;;;;;;;5.03;2.22;;;42.70;28.10;;;;;;4955687;28;20039;-79
2022/08/11 15:05:50;;;;;;;4.78;2.10;;;42.50;27.90;;;;;;4955472;28;20040;-77
2022/08/11 15:08:17;;;;;;;2.95;2.13;;;42.80;28.30;;;;;;4955547;28;20036;-78
2022/08/11 15:10:44;;;;;;;2.10;1.90;;;43.40;27.50;;;;;;4955120;28;20044;-78
2022/08/11 15:13:10;;;;;;;2.20;2.00;;;43.20;27.40;;;;;;4955033;28;20458;-78
2022/08/11 15:18:23;;;;;;;3.13;2.00;;;42.10;28.10;;;;;;4955930;28;20553;-77
2022/08/11 15:38:12;;;;;;;2.30;2.10;;;44.30;26.70;;;;;;4922294;28;20056;-75
2022/08/11 15:46:15;;;;;;;4.07;2.22;;;42.70;26.80;;;;;;4955790;28;20039;-75
2022/08/11 15:49:03;;;;;;;5.25;2.08;;;42.50;27.70;;;;;;4953915;28;20520;-78
2022/08/11 15:51:40;;;;;;;6.20;2.28;;;43.20;27.80;;;;;;4946118;28;20103;-75
2022/08/11 15:54:14;;;;;;;2.72;2.05;;;43.00;27.70;;;;;;4948016;28;20044;-76
2022/08/11 15:56:43;;;;;;;5.15;2.00;;;42.30;27.60;;;;;;4958407;28;20123;-76
2022/08/11 16:04:44;;;;;;;4.60;2.00;;;41.80;28.30;;;;;;4939123;29;20092;-73
2022/08/11 16:07:16;;;;;;;2.83;2.35;;;42.20;27.00;;;;;;4954402;28;20040;-77
2022/08/11 16:09:50;;;;;;;3.10;2.03;;;41.70;27.20;;;;;;4952965;28;20514;-75
2022/08/11 16:12:19;;;;;;;2.22;1.90;;;41.60;28.20;;;;;;4954834;28;20079;-76
2022/08/11 16:17:36;;;;;;;2.55;1.98;;;41.40;28.10;;;;;;4959055;28;20024;-78
2022/08/11 16:20:04;;;;;;;3.92;2.20;;;41.90;27.70;;;;;;4956262;28;20040;-75
2022/08/11 16:22:43;;;;;;;3.50;2.28;;;42.80;27.30;;;;;;4956988;28;20027;-75
2022/08/11 16:25:23;;;;;;;2.38;2.17;;;43.10;27.80;;;;;;4957507;28;20035;-75
2022/08/11 16:27:52;;;;;;;5.30;2.20;;;43.50;26.60;;;;;;4957856;28;20095;-75
2022/08/11 16:30:17;;;;;;;3.92;2.00;;;43.00;26.70;;;;;;4957284;28;20039;-75
2022/08/11 16:32:45;;;;;;;2.97;2.10;;;42.00;27.80;;;;;;4956849;28;20040;-75
2022/08/11 16:40:50;;;;;;;2.55;2.05;;;43.00;26.90;;;;;;4956661;28;20036;-78
2022/08/11 16:48:51;;;;;;;4.13;2.60;;;43.00;26.60;;;;;;4940511;29;20036;-77
2022/08/11 16:51:19;;;;;;;3.65;2.50;;;42.40;27.60;;;;;;4941840;28;20039;-78
2022/08/11 16:53:46;;;;;;;3.78;2.40;;;40.60;27.90;;;;;;4959192;28;20035;-77
2022/08/11 16:56:17;;;;;;;5.97;2.33;;;38.90;29.60;;;;;;4957388;28;20024;-76
2022/08/11 17:01:32;;;;;;;2.97;2.65;;;36.50;31.10;;;;;;4957654;28;20068;-78
2022/08/11 17:18:06;;;;;;;4.97;3.20;;;31.20;37.70;;;;;;4957998;28;20066;-77
2022/08/11 17:20:33;;;;;;;3.47;3.15;;;30.90;38.80;;;;;;4956581;28;20032;-76
2022/08/11 17:25:47;;;;;;;3.03;2.60;;;30.50;37.80;;;;;;4960561;28;20493;-81
2022/08/11 17:28:14;;;;;;;4.60;2.45;;;30.30;38.30;;;;;;4959057;28;20048;-79
2022/08/11 17:36:20;;;;;;;4.28;2.33;;;29.70;39.10;;;;;;4957350;28;20044;-76
2022/08/11 17:38:47;;;;;;;4.28;2.40;;;29.50;39.50;;;;;;4956802;28;20044;-75
2022/08/11 17:49:36;;;;;;;7.13;3.53;;;28.70;40.10;;;;;;4956518;28;20522;-75
2022/08/11 18:00:16;;;;;;;6.05;2.40;;;28.00;43.80;;;;;;4954702;28;20044;-75
2022/08/11 18:05:30;;;;;;;7.28;2.58;;;27.60;43.70;;;;;;4956624;28;20043;-74
